Fredonia, New York
Current Conditions -  °F | °C
As of 2:53 PM on Monday 26 Jan 2015 (Local Time) from KDKK Reporting Station
Overcast Overcast  
Wind Chill:   Ceiling: 3700
Heat Index: 20°   Visibility: 9mi
Dew Point: 15°   Wind: 12mph
Humidity: 81%   Direction: 40°NE
Pressure: 29.83"   Gusts: NA
Location:  42.44°N, 79.33°W
Report Text: KDKK 261953Z AUTO 04010KT 9SM FEW015 SCT026 OVC037 M07/M09 A2983 RMK AO2 SNE35 SLP114 P0000 T10671094
Loading
Personal Weather Stations






























Interactive Weather Map New forecast layout! Learn more

10-Day Weather Forecast

Advertisements
Track Severe Weather on mobile